createdAt,value
2019-04-03T00:02:17.112Z,82.48
2019-04-03T00:04:46.036Z,82.74
2019-04-03T00:07:14.920Z,82.41
2019-04-03T00:09:43.827Z,82.32
2019-04-03T00:12:12.822Z,82.36
2019-04-03T00:14:43.143Z,82.77
2019-04-03T00:17:10.654Z,82.84
2019-04-03T00:19:39.487Z,82.18
2019-04-03T00:22:08.433Z,82.26
2019-04-03T00:24:37.352Z,82.83
2019-04-03T00:27:06.269Z,82.10
2019-04-03T00:29:35.235Z,82.20
2019-04-03T00:32:04.147Z,82.96
2019-04-03T00:34:33.140Z,81.15
2019-04-03T00:37:01.971Z,79.75
2019-04-03T00:39:30.914Z,81.32
2019-04-03T00:41:59.971Z,80.78
2019-04-03T00:44:28.854Z,80.49
2019-04-03T00:46:57.764Z,81.09
2019-04-03T00:49:26.666Z,81.14
2019-04-03T00:51:57.134Z,81.25
2019-04-03T00:54:26.053Z,81.31
2019-04-03T00:56:54.696Z,81.31
2019-04-03T00:59:22.322Z,81.02
2019-04-03T01:01:51.261Z,81.14
2019-04-03T01:04:20.199Z,81.04
2019-04-03T01:06:49.193Z,81.42
2019-04-03T01:09:18.173Z,80.89
2019-04-03T01:11:46.945Z,81.22
2019-04-03T01:14:15.859Z,80.74
2019-04-03T01:16:44.780Z,80.53
2019-04-03T01:19:13.758Z,80.53
2019-04-03T01:21:42.571Z,80.74
2019-04-03T01:24:11.505Z,80.62
2019-04-03T01:26:41.197Z,78.79
2019-04-03T01:29:10.633Z,80.29
2019-04-03T01:31:38.267Z,80.49
2019-04-03T01:34:07.241Z,79.07
2019-04-03T01:36:36.212Z,79.88
2019-04-03T01:39:06.467Z,79.75
2019-04-03T01:41:35.388Z,79.91
2019-04-03T01:44:04.300Z,79.34
2019-04-03T01:46:33.301Z,79.70
2019-04-03T01:49:02.373Z,79.44
2019-04-03T01:51:31.006Z,79.27
2019-04-03T01:54:02.319Z,79.64
2019-04-03T01:56:28.814Z,77.34
2019-04-03T01:58:57.774Z,79.12
2019-04-03T02:01:26.604Z,79.00
2019-04-03T02:03:55.537Z,78.96
2019-04-03T02:06:24.397Z,79.18
2019-04-03T02:08:53.456Z,79.36
2019-04-03T02:11:22.218Z,79.40
2019-04-03T02:13:51.683Z,79.28
2019-04-03T02:16:20.061Z,79.56
2019-04-03T02:18:48.998Z,79.61
2019-04-03T02:21:17.933Z,79.43
2019-04-03T02:23:46.837Z,77.84
2019-04-03T02:26:15.720Z,79.51
2019-04-03T02:28:44.638Z,79.11
2019-04-03T02:31:18.200Z,78.92
2019-04-03T02:33:42.656Z,79.49
2019-04-03T02:36:12.566Z,79.60
2019-04-03T02:38:40.224Z,79.44
2019-04-03T02:41:09.134Z,79.44
2019-04-03T02:43:38.041Z,79.53
2019-04-03T02:46:07.007Z,77.67
2019-04-03T02:48:38.295Z,78.77
2019-04-03T02:51:05.141Z,77.99
2019-04-03T02:53:33.739Z,79.41
2019-04-03T02:56:02.679Z,79.00
2019-04-03T02:58:31.623Z,79.08
2019-04-03T03:01:00.520Z,79.18
2019-04-03T03:03:29.430Z,78.01
2019-04-03T03:06:00.704Z,78.71
2019-04-03T03:08:27.233Z,79.28
2019-04-03T03:10:56.772Z,79.45
2019-04-03T03:13:25.809Z,79.33
2019-04-03T03:15:54.609Z,79.91
2019-04-03T03:18:24.648Z,79.15
2019-04-03T03:20:52.391Z,79.23
2019-04-03T03:23:23.359Z,79.64
2019-04-03T03:25:50.213Z,80.12
2019-04-03T03:28:19.425Z,79.91
2019-04-03T03:30:57.836Z,79.75
2019-04-03T03:33:34.748Z,80.16
2019-04-03T03:35:48.935Z,80.24
2019-04-03T03:38:16.211Z,80.50
2019-04-03T03:40:48.342Z,80.14
2019-04-03T03:43:14.422Z,79.83
2019-04-03T03:45:43.251Z,80.07
2019-04-03T03:48:12.197Z,79.95
2019-04-03T03:50:41.330Z,80.09
2019-04-03T03:53:11.982Z,80.29
2019-04-03T03:55:38.854Z,80.32
2019-04-03T03:58:11.020Z,80.48
2019-04-03T04:00:36.702Z,80.05
2019-04-03T04:03:09.095Z,80.35
2019-04-03T04:05:34.851Z,78.06
2019-04-03T04:08:04.392Z,79.52
2019-04-03T04:10:35.887Z,79.98
2019-04-03T04:13:02.241Z,79.85
2019-04-03T04:15:31.806Z,79.42
2019-04-03T04:18:00.397Z,79.51
2019-04-03T04:20:29.015Z,79.68
2019-04-03T04:22:57.909Z,79.73
2019-04-03T04:25:28.297Z,79.07
2019-04-03T04:27:55.775Z,78.73
2019-04-03T04:30:24.666Z,78.51
2019-04-03T04:32:53.652Z,78.54
2019-04-03T04:35:22.465Z,78.14
2019-04-03T04:37:51.368Z,78.11
2019-04-03T04:40:20.260Z,77.77
2019-04-03T04:42:49.169Z,77.75
2019-04-03T04:45:18.058Z,77.85
2019-04-03T04:47:46.955Z,78.41
2019-04-03T04:50:24.165Z,78.17
2019-04-03T04:52:50.695Z,77.69
2019-04-03T04:55:19.803Z,78.19
2019-04-03T04:57:48.758Z,77.83
2019-04-03T05:00:17.656Z,77.67
2019-04-03T05:02:46.587Z,76.97
2019-04-03T05:05:15.510Z,74.72
2019-04-03T05:07:44.404Z,76.33
2019-04-03T05:10:13.308Z,76.87
2019-04-03T05:12:44.729Z,76.75
2019-04-03T05:15:11.116Z,76.85
2019-04-03T05:17:40.031Z,77.06
2019-04-03T05:20:08.939Z,77.00
2019-04-03T05:22:37.839Z,76.79
2019-04-03T05:25:07.221Z,76.71
2019-04-03T05:27:35.985Z,76.63
2019-04-03T05:30:06.028Z,76.57
2019-04-03T05:32:34.153Z,76.42
2019-04-03T05:35:03.055Z,76.59
2019-04-03T05:37:31.985Z,76.61
2019-04-03T05:40:00.888Z,76.42
2019-04-03T05:42:29.784Z,75.96
2019-04-03T05:44:58.680Z,76.22
2019-04-03T05:47:27.581Z,76.72
2019-04-03T05:49:56.564Z,76.39
2019-04-03T05:52:25.402Z,76.65
2019-04-03T05:54:54.399Z,77.47
2019-04-03T05:57:23.285Z,76.84
2019-04-03T06:00:00.064Z,76.83
2019-04-03T06:02:22.188Z,75.35
2019-04-03T06:04:50.129Z,76.64
2019-04-03T06:07:19.011Z,76.87
2019-04-03T06:09:47.863Z,77.43
2019-04-03T06:12:18.654Z,76.90
2019-04-03T06:14:45.662Z,76.59
2019-04-03T06:17:14.673Z,76.79
2019-04-03T06:19:43.602Z,76.44
2019-04-03T06:22:12.503Z,76.46
2019-04-03T06:24:41.408Z,76.10
2019-04-03T06:27:10.593Z,76.61
2019-04-03T06:29:39.288Z,76.62
2019-04-03T06:32:08.227Z,75.68
2019-04-03T06:34:38.870Z,75.52
2019-04-03T06:37:06.311Z,75.91
2019-04-03T06:39:35.213Z,75.84
2019-04-03T06:42:04.361Z,76.02
2019-04-03T06:44:33.101Z,75.85
2019-04-03T06:47:02.078Z,75.77
2019-04-03T06:49:31.096Z,75.55
2019-04-03T06:51:59.773Z,75.83
2019-04-03T06:54:31.032Z,75.89
2019-04-03T06:56:57.629Z,76.08
2019-04-03T06:59:26.518Z,75.44
2019-04-03T07:01:55.414Z,75.20
2019-04-03T07:04:24.332Z,74.80
2019-04-03T07:06:55.758Z,75.08
2019-04-03T07:09:32.316Z,74.26
2019-04-03T07:11:51.184Z,73.89
2019-04-03T07:14:20.113Z,73.94
2019-04-03T07:16:49.041Z,73.93
2019-04-03T07:19:17.953Z,73.69
2019-04-03T07:21:46.842Z,73.41
2019-04-03T07:24:15.777Z,73.35
2019-04-03T07:26:44.968Z,73.25
2019-04-03T07:29:15.818Z,73.12
2019-04-03T07:31:42.733Z,72.48
2019-04-03T07:34:11.405Z,71.41
2019-04-03T07:36:41.382Z,70.98
2019-04-03T07:39:11.001Z,71.44
2019-04-03T07:41:41.199Z,70.95
2019-04-03T07:44:07.465Z,67.75
2019-04-03T07:46:36.356Z,68.27
2019-04-03T07:49:06.811Z,68.59
2019-04-03T07:51:34.381Z,69.01
2019-04-03T07:54:04.744Z,69.20
2019-04-03T07:56:32.300Z,68.85
2019-04-03T07:59:03.305Z,68.58
2019-04-03T08:01:29.906Z,69.19
2019-04-03T08:03:58.805Z,69.28
2019-04-03T08:06:27.919Z,69.20
2019-04-03T08:09:07.214Z,68.92
2019-04-03T08:11:25.733Z,68.41
2019-04-03T08:13:54.561Z,67.92
2019-04-03T08:16:23.362Z,67.62
2019-04-03T08:18:52.498Z,67.19
2019-04-03T08:21:21.242Z,68.47
2019-04-03T08:23:50.086Z,68.60
2019-04-03T08:26:19.856Z,68.54
2019-04-03T08:28:47.935Z,67.70
2019-04-03T08:31:16.827Z,66.95
2019-04-03T08:33:45.734Z,68.00
2019-04-03T08:36:24.702Z,67.52
2019-04-03T08:38:44.947Z,68.39
2019-04-03T08:41:12.495Z,68.90
2019-04-03T08:43:41.452Z,68.49
2019-04-03T08:46:11.014Z,68.78
2019-04-03T08:48:39.485Z,68.20
2019-04-03T08:51:08.439Z,68.28
2019-04-03T08:53:39.332Z,67.98
2019-04-03T08:56:06.668Z,68.12
2019-04-03T08:58:35.282Z,66.14
2019-04-03T09:01:05.332Z,64.74
2019-04-03T09:03:33.287Z,65.04
2019-04-03T09:06:02.202Z,63.25
2019-04-03T09:08:31.114Z,62.04
2019-04-03T09:11:00.006Z,59.46
2019-04-03T09:13:28.910Z,56.98
2019-04-03T09:15:59.723Z,52.97
2019-04-03T09:18:29.758Z,52.12
2019-04-03T09:20:55.674Z,50.69
2019-04-03T09:23:25.096Z,50.96
2019-04-03T09:25:53.480Z,50.11
2019-04-03T09:28:22.799Z,50.68
2019-04-03T09:30:53.982Z,51.71
2019-04-03T09:33:20.164Z,49.19
2019-04-03T09:35:49.061Z,48.19
2019-04-03T09:38:17.992Z,48.01
2019-04-03T09:40:48.315Z,46.46
2019-04-03T09:43:15.772Z,48.07
2019-04-03T09:45:44.704Z,48.36
2019-04-03T09:48:13.602Z,48.79
2019-04-03T09:50:45.370Z,50.95
2019-04-03T09:53:11.556Z,50.17
2019-04-03T09:55:40.338Z,49.60
2019-04-03T09:58:09.415Z,50.39
2019-04-03T10:00:41.257Z,49.93
2019-04-03T10:03:07.365Z,47.99
2019-04-03T10:05:36.146Z,48.41
2019-04-03T10:08:07.709Z,49.68
2019-04-03T10:10:34.775Z,51.87
2019-04-03T10:13:03.422Z,49.17
2019-04-03T10:15:32.431Z,48.53
2019-04-03T10:18:01.170Z,47.96
2019-04-03T10:20:30.100Z,47.86
2019-04-03T10:22:58.996Z,48.37
2019-04-03T10:25:27.901Z,49.31
2019-04-03T10:27:56.866Z,48.27
2019-04-03T10:30:26.007Z,48.11
2019-04-03T10:32:54.760Z,48.46
2019-04-03T10:35:23.526Z,48.29
2019-04-03T10:37:52.458Z,49.58
2019-04-03T10:40:23.650Z,48.59
2019-04-03T10:42:50.529Z,49.05
2019-04-03T10:45:19.154Z,48.54
2019-04-03T10:47:48.062Z,47.38
2019-04-03T10:50:17.258Z,48.58
2019-04-03T10:52:48.197Z,49.68
2019-04-03T10:55:14.961Z,48.71
2019-04-03T10:57:43.911Z,49.67
2019-04-03T11:00:12.770Z,49.57
2019-04-03T11:02:42.027Z,49.27
2019-04-03T11:05:10.834Z,51.27
2019-04-03T11:07:39.536Z,48.40
2019-04-03T11:10:08.690Z,47.76
2019-04-03T11:12:37.994Z,48.19
2019-04-03T11:15:06.975Z,48.10
2019-04-03T11:17:35.793Z,48.95
2019-04-03T11:20:08.798Z,50.88
2019-04-03T11:22:40.431Z,49.40
2019-04-03T11:25:04.112Z,51.07
2019-04-03T11:27:42.535Z,49.49
2019-04-03T11:30:02.123Z,48.96
2019-04-03T11:32:30.780Z,49.31
2019-04-03T11:34:59.680Z,49.21
2019-04-03T11:37:32.133Z,49.62
2019-04-03T11:40:03.778Z,49.94
2019-04-03T11:42:29.301Z,49.59
2019-04-03T11:44:55.321Z,51.45
2019-04-03T11:47:24.187Z,50.22
2019-04-03T11:49:53.273Z,50.67
2019-04-03T11:52:21.985Z,50.62
2019-04-03T11:54:52.812Z,51.00
2019-04-03T11:57:19.829Z,50.44
2019-04-03T11:59:49.061Z,50.98
2019-04-03T12:02:17.617Z,51.13
2019-04-03T12:04:46.531Z,51.17
2019-04-03T12:07:15.435Z,52.66
2019-04-03T12:09:44.346Z,52.09
2019-04-03T12:12:13.259Z,51.37
2019-04-03T12:14:42.347Z,52.29
2019-04-03T12:17:11.181Z,52.26
2019-04-03T12:19:40.136Z,51.64
2019-04-03T12:22:09.118Z,51.70
2019-04-03T12:24:38.338Z,52.01
2019-04-03T12:27:07.004Z,51.36
2019-04-03T12:29:35.889Z,52.89
2019-04-03T12:32:07.933Z,51.70
2019-04-03T12:34:36.625Z,51.68
2019-04-03T12:37:02.662Z,52.24
2019-04-03T12:39:31.994Z,53.27
2019-04-03T12:42:00.532Z,53.94
2019-04-03T12:44:29.932Z,52.93
2019-04-03T12:46:58.335Z,54.11
2019-04-03T12:49:27.207Z,52.28
2019-04-03T12:51:56.154Z,51.84
2019-04-03T12:54:25.434Z,52.18
2019-04-03T12:56:54.054Z,52.39
2019-04-03T12:59:22.934Z,52.03
2019-04-03T13:01:51.821Z,52.78
2019-04-03T13:04:21.157Z,52.15
2019-04-03T13:06:50.022Z,53.01
2019-04-03T13:09:18.529Z,52.99
2019-04-03T13:11:49.920Z,52.89
2019-04-03T13:14:24.164Z,54.38
2019-04-03T13:16:47.128Z,53.23
2019-04-03T13:19:15.639Z,53.39
2019-04-03T13:21:43.146Z,52.48
2019-04-03T13:24:12.614Z,53.27
2019-04-03T13:26:40.911Z,53.13
2019-04-03T13:29:09.966Z,53.73
2019-04-03T13:31:38.858Z,53.98
2019-04-03T13:34:09.753Z,54.30
2019-04-03T13:36:36.689Z,54.15
2019-04-03T13:39:07.566Z,54.74
2019-04-03T13:41:36.404Z,54.15
2019-04-03T13:44:05.528Z,55.59
2019-04-03T13:46:36.402Z,55.76
2019-04-03T13:49:03.604Z,56.30
2019-04-03T13:51:32.241Z,55.77
2019-04-03T13:54:01.137Z,56.36
2019-04-03T13:56:30.489Z,56.42
2019-04-03T13:58:58.999Z,56.56
2019-04-03T14:01:28.441Z,56.80
2019-04-03T14:03:57.133Z,56.04
2019-04-03T14:06:25.647Z,56.03
2019-04-03T14:08:54.593Z,55.27
2019-04-03T14:11:23.514Z,55.17
2019-04-03T14:13:52.770Z,55.48
2019-04-03T14:16:22.804Z,55.88
2019-04-03T14:18:51.134Z,57.06
2019-04-03T14:21:19.123Z,56.99
2019-04-03T14:23:48.108Z,56.77
2019-04-03T14:26:17.178Z,56.19
2019-04-03T14:28:45.900Z,56.14
2019-04-03T14:31:16.869Z,56.18
2019-04-03T14:33:46.264Z,56.45
2019-04-03T14:36:12.574Z,55.91
2019-04-03T14:38:41.503Z,56.41
2019-04-03T14:41:10.740Z,56.12
2019-04-03T14:43:39.459Z,56.28
2019-04-03T14:46:08.529Z,56.14
2019-04-03T14:48:37.102Z,56.20
2019-04-03T14:51:07.265Z,55.69
2019-04-03T14:53:34.910Z,55.90
2019-04-03T14:56:03.842Z,56.50
2019-04-03T14:58:32.728Z,56.65
2019-04-03T15:01:01.644Z,56.64
2019-04-03T15:03:30.561Z,56.37
2019-04-03T15:05:59.477Z,56.38
2019-04-03T15:08:28.420Z,57.56
2019-04-03T15:10:57.297Z,57.49
2019-04-03T15:13:26.625Z,57.41
2019-04-03T15:15:55.127Z,57.44
2019-04-03T15:18:24.013Z,58.33
2019-04-03T15:20:53.275Z,58.33
2019-04-03T15:23:21.979Z,58.03
2019-04-03T15:25:52.852Z,57.66
2019-04-03T15:28:19.764Z,58.11
2019-04-03T15:30:48.515Z,58.57
2019-04-03T15:33:17.465Z,58.45
2019-04-03T15:35:46.400Z,57.99
2019-04-03T15:38:18.074Z,58.19
2019-04-03T15:40:44.265Z,58.27
2019-04-03T15:43:15.952Z,58.77
2019-04-03T15:45:42.124Z,58.92
2019-04-03T15:48:11.271Z,59.09
2019-04-03T15:50:40.027Z,59.86
2019-04-03T15:53:08.958Z,59.98
2019-04-03T15:55:39.014Z,59.99
2019-04-03T15:58:07.119Z,60.04
2019-04-03T16:00:36.565Z,59.92
2019-04-03T16:03:04.968Z,59.66
2019-04-03T16:05:36.331Z,59.96
2019-04-03T16:08:02.960Z,60.29
2019-04-03T16:10:31.719Z,60.67
2019-04-03T16:13:01.144Z,60.73
2019-04-03T16:15:29.840Z,60.09
2019-04-03T16:17:58.363Z,60.12
2019-04-03T16:20:27.638Z,59.98
2019-04-03T16:22:56.210Z,59.60
2019-04-03T16:25:25.511Z,59.73
2019-04-03T16:27:54.399Z,60.08
2019-04-03T16:30:22.815Z,60.39
2019-04-03T16:32:51.986Z,60.21
2019-04-03T16:35:20.624Z,60.23
2019-04-03T16:37:50.608Z,60.01
2019-04-03T16:40:18.416Z,60.37
2019-04-03T16:42:48.290Z,60.88
2019-04-03T16:45:16.228Z,60.43
2019-04-03T16:47:45.790Z,59.60
2019-04-03T16:50:14.054Z,61.08
2019-04-03T16:52:43.577Z,60.56
2019-04-03T16:55:11.943Z,60.68
2019-04-03T16:57:40.753Z,60.96
2019-04-03T17:00:10.311Z,61.42
2019-04-03T17:02:38.713Z,61.15
2019-04-03T17:05:10.424Z,61.23
2019-04-03T17:07:38.090Z,61.09
2019-04-03T17:10:05.785Z,61.35
2019-04-03T17:12:34.710Z,61.00
2019-04-03T17:15:03.685Z,61.19
2019-04-03T17:17:32.791Z,61.30
2019-04-03T17:20:01.503Z,61.23
2019-04-03T17:22:30.992Z,61.80
2019-04-03T17:24:59.414Z,61.55
2019-04-03T17:27:30.338Z,61.76
2019-04-03T17:29:57.292Z,62.36
2019-04-03T17:32:28.958Z,62.60
2019-04-03T17:34:55.025Z,63.05
2019-04-03T17:37:25.446Z,63.09
2019-04-03T17:39:52.870Z,62.52
2019-04-03T17:42:21.796Z,62.16
2019-04-03T17:44:50.682Z,62.69
2019-04-03T17:47:20.038Z,62.93
2019-04-03T17:49:48.472Z,63.18
2019-04-03T17:52:17.375Z,62.78
2019-04-03T17:54:46.266Z,62.77
2019-04-03T17:57:17.399Z,63.03
2019-04-03T17:59:44.123Z,63.10
2019-04-03T18:02:13.027Z,63.34
2019-04-03T18:04:41.947Z,63.07
2019-04-03T18:07:12.175Z,63.60
2019-04-03T18:09:41.952Z,63.78
2019-04-03T18:12:08.864Z,64.03
2019-04-03T18:14:37.944Z,63.84
2019-04-03T18:17:06.908Z,64.44
2019-04-03T18:19:37.606Z,64.38
2019-04-03T18:22:04.805Z,65.04
2019-04-03T18:24:33.692Z,65.42
2019-04-03T18:27:03.222Z,65.20
2019-04-03T18:29:31.523Z,65.37
2019-04-03T18:32:00.418Z,65.65
2019-04-03T18:34:29.330Z,66.55
2019-04-03T18:36:58.282Z,66.06
2019-04-03T18:39:27.241Z,65.99
2019-04-03T18:41:56.183Z,66.78
2019-04-03T18:44:26.958Z,66.67
2019-04-03T18:46:53.980Z,67.77
2019-04-03T18:49:22.856Z,66.88
2019-04-03T18:51:51.737Z,68.05
2019-04-03T18:54:20.652Z,67.87
2019-04-03T18:56:49.578Z,67.53
2019-04-03T18:59:18.574Z,67.09
2019-04-03T19:01:47.391Z,67.14
2019-04-03T19:04:16.280Z,67.31
2019-04-03T19:06:45.310Z,67.03
2019-04-03T19:09:14.088Z,67.46
2019-04-03T19:11:43.014Z,67.36
2019-04-03T19:14:11.969Z,67.18
2019-04-03T19:16:45.231Z,67.36
2019-04-03T19:19:09.856Z,67.30
2019-04-03T19:21:38.756Z,66.33
2019-04-03T19:24:07.718Z,66.83
2019-04-03T19:26:36.658Z,66.88
2019-04-03T19:29:05.683Z,67.11
2019-04-03T19:31:34.488Z,66.72
2019-04-03T19:34:03.468Z,67.09
2019-04-03T19:36:32.356Z,67.21
2019-04-03T19:39:01.258Z,67.27
2019-04-03T19:41:30.166Z,67.76
2019-04-03T19:44:00.694Z,67.57
2019-04-03T19:46:28.080Z,67.82
2019-04-03T19:48:57.406Z,67.78
2019-04-03T19:51:25.854Z,67.94
2019-04-03T19:53:59.589Z,68.29
2019-04-03T19:56:25.731Z,68.53
2019-04-03T19:58:52.603Z,67.75
2019-04-03T20:01:23.850Z,68.50
2019-04-03T20:03:50.412Z,67.75
2019-04-03T20:06:22.384Z,67.51
2019-04-03T20:08:48.221Z,67.74
2019-04-03T20:11:17.126Z,67.63
2019-04-03T20:13:46.069Z,67.51
2019-04-03T20:16:14.969Z,67.46
2019-04-03T20:18:43.883Z,67.43
2019-04-03T20:21:15.118Z,68.14
2019-04-03T20:23:42.466Z,68.79
2019-04-03T20:26:10.650Z,70.99
2019-04-03T20:28:39.529Z,71.28
2019-04-03T20:31:08.480Z,71.66
2019-04-03T20:33:37.378Z,71.73
2019-04-03T20:36:06.346Z,72.33
2019-04-03T20:38:35.239Z,72.56
2019-04-03T20:41:04.142Z,73.05
2019-04-03T20:43:33.028Z,73.28
2019-04-03T20:46:01.929Z,74.19
2019-04-03T20:48:30.824Z,74.19
2019-04-03T20:50:59.759Z,74.34
2019-04-03T20:53:28.620Z,74.09
2019-04-03T20:55:58.091Z,74.28
2019-04-03T20:58:26.414Z,74.79
2019-04-03T21:01:05.917Z,75.88
2019-04-03T21:03:24.197Z,75.18
2019-04-03T21:05:53.259Z,75.67
2019-04-03T21:08:22.152Z,76.19
2019-04-03T21:10:51.034Z,75.91
2019-04-03T21:13:19.942Z,76.27
2019-04-03T21:15:52.285Z,76.24
2019-04-03T21:18:21.208Z,75.79
2019-04-03T21:20:50.939Z,76.23
2019-04-03T21:23:21.150Z,74.37
2019-04-03T21:25:51.720Z,75.94
2019-04-03T21:28:20.537Z,75.73
2019-04-03T21:30:49.441Z,75.20
2019-04-03T21:33:18.353Z,74.42
2019-04-03T21:35:47.239Z,74.23
2019-04-03T21:38:16.110Z,75.81
2019-04-03T21:40:46.822Z,76.03
2019-04-03T21:43:13.915Z,76.08
2019-04-03T21:45:42.825Z,76.47
2019-04-03T21:48:13.556Z,76.31
2019-04-03T21:50:40.599Z,76.00
2019-04-03T21:53:09.485Z,76.21
2019-04-03T21:55:38.403Z,76.74
2019-04-03T21:58:08.925Z,77.26
2019-04-03T22:01:16.988Z,77.20
2019-04-03T22:03:45.962Z,77.03
2019-04-03T22:06:14.838Z,76.61
2019-04-03T22:08:43.783Z,75.90
2019-04-03T22:11:12.666Z,76.91
2019-04-03T22:13:41.568Z,76.71
2019-04-03T22:16:10.526Z,76.49
2019-04-03T22:18:39.406Z,76.63
2019-04-03T22:21:08.300Z,76.75
2019-04-03T22:23:37.203Z,76.53
2019-04-03T22:26:06.106Z,76.99
2019-04-03T22:28:35.017Z,76.83
2019-04-03T22:31:03.963Z,77.42
2019-04-03T22:33:32.955Z,77.26
2019-04-03T22:36:03.411Z,77.52
2019-04-03T22:38:30.699Z,77.66
2019-04-03T22:40:59.583Z,77.56
2019-04-03T22:43:28.551Z,77.52
2019-04-03T22:45:57.410Z,77.59
2019-04-03T22:48:27.431Z,78.01
2019-04-03T22:50:55.169Z,77.98
2019-04-03T22:53:24.098Z,77.52
2019-04-03T22:55:53.013Z,78.18
2019-04-03T22:58:21.909Z,76.68
2019-04-03T23:00:50.806Z,77.70
2019-04-03T23:03:19.725Z,77.27
2019-04-03T23:05:48.664Z,77.85
2019-04-03T23:08:17.500Z,77.92
2019-04-03T23:10:46.435Z,77.60
2019-04-03T23:13:15.343Z,77.76
2019-04-03T23:15:44.252Z,77.49
2019-04-03T23:18:13.999Z,76.12
2019-04-03T23:20:42.388Z,76.91
2019-04-03T23:23:11.272Z,77.07
2019-04-03T23:25:40.191Z,77.14
2019-04-03T23:28:09.048Z,77.71
2019-04-03T23:30:39.118Z,77.31
2019-04-03T23:33:06.912Z,77.05
2019-04-03T23:35:35.881Z,77.21
2019-04-03T23:38:04.886Z,76.98
2019-04-03T23:40:34.625Z,76.55
2019-04-03T23:43:02.740Z,76.39
2019-04-03T23:45:32.003Z,76.28
2019-04-03T23:48:01.002Z,76.41
2019-04-03T23:50:29.899Z,77.12
2019-04-03T23:53:00.723Z,77.16
2019-04-03T23:55:27.718Z,77.14
2019-04-03T23:57:56.653Z,77.51
